Huvudsida
METAR-TAF:

METAR-TAF

Flygplatser :

Qazvin Airport

Qazvin, Iran

latitud: 36-15N, longitud: 050-00E, höjd: 1278 m

Aktuellt väderrapport

Denna rapport gjordes för 55 minuter sedan, klockan 15:00 UTC
Vind 4 kt från nord/nordväst
Temperatur 23°C
Fuktighet 44%
Tryck 1019 hPa
Sikt 10 km eller mer
Få moln på en höjd av 3500 ft

METAR: OIIK 271500Z 34004KT 9999 FEW035 23/10 Q1019

Tid: 20:25 (15:55 UTC)


TAF: saknas

Aktuella väderrapporter och prognoser från 4000 flygplatser (METAR- och TAF-rapporter).

De tillgängliga stationerna syns som gula och röda prickar på kartan.

För musen över prickarna för att se namnen på stationerna.

Klicka sedan för att få väderrapporter och prognoser.

För att ändra kartan: Klicka på de gröna knapparna med ett svart kors på för att zooma in; den gröna knappen med ett streck på för att zooma ut; eller på de gröna pilarna för angränsande kartor.


METAR-TAF: